Estación Meteorológica Peña el Pijo (Robertgarden) [ 07/19/18 09:21:57 CEST ]

Fecha Hora Presion(HPa) Temp (°C) Humedad % Rocio (°C) Viento ( m/s) Direccion Lluvia 1Hora(mm) Lluvia 24H(mm) LLuvia Total(mm)
2018-Jul-07 01:01:48 1014.200 15.6 55 6.6         269.36
2018-Jul-07 02:01:41 1014.100 14.3 61 6.9         269.36
2018-Jul-07 03:02:17 1013.500 13.0 66 6.8         269.36
2018-Jul-07 04:02:09 1013.200 11.9 68 6.2         269.36
2018-Jul-07 05:02:08 1012.900 11.3 71 6.3         269.36
2018-Jul-07 06:01:55 1012.900 11.6 71 6.5         269.36
2018-Jul-07 07:01:52 1013.100 11.0 73 6.4         269.36
2018-Jul-07 08:01:43 1013.200 12.4 74 7.9         269.36
2018-Jul-07 09:01:44 1013.300 18.2 66 11.7         269.36
2018-Jul-07 10:01:44 1013.200 23.4 47 11.4         269.36
2018-Jul-07 11:01:33 1013.200 28.3 31 9.5         269.36
2018-Jul-07 12:01:34 1013.200 30.3 26 8.4         269.36
2018-Jul-07 13:01:46 1013.100 31.2 25 8.6         269.36
2018-Jul-07 14:01:41 1012.400 32.1 24 8.8         269.36
2018-Jul-07 15:01:31 1012.100 31.4 25 8.2         269.36
2018-Jul-07 16:01:49 1011.800 30.1 27 8.9         269.36
2018-Jul-07 17:01:33 1011.100 33.4 25 10.5         269.36
2018-Jul-07 18:01:34 1010.900 32.4 26 10.2         269.36
2018-Jul-07 19:01:43 1010.800 30.0 29 10.0         269.36
2018-Jul-07 20:01:46 1011.300 27.1 35 10.2 2.7 SSE     269.36
2018-Jul-07 21:02:03 1011.400 24.5 40 10.0         269.36
2018-Jul-07 22:01:48 1012.200 22.3 43 9.1         269.36
2018-Jul-07 23:01:39 1012.800 20.4 46 8.3         269.36

Temperatura Máxima:33°    Temperatura Mínima:11°
Presión Máxima:1014.200 Hpa    Presión Mínima:1010.800 Hpa


Volver